Time;durP1;ratioP1;P1;durP2;ratioP2;P2;SDS_P1;SDS_P2;PMS_P1;PMS_P2;Temp;Humidity;BMP_temperature;BMP_pressure;BME280_temperature;BME280_humidity;BME280_pressure;Samples;Min_cycle;Max_cycle;Signal;HPM_P1;HPM_P2
2021/07/01 00:00:52;;;;;;;19.10;14.30;;;14.00;99.90;;;;;;5055308;28;20196;-74
2021/07/01 00:03:17;;;;;;;22.37;13.20;;;13.90;99.90;;;;;;5056116;28;20273;-73
2021/07/01 00:05:43;;;;;;;22.33;15.20;;;13.90;99.90;;;;;;5049717;28;20475;-74
2021/07/01 00:08:10;;;;;;;21.23;15.00;;;13.90;99.90;;;;;;5052455;28;20187;-74
2021/07/01 00:10:36;;;;;;;29.30;16.27;;;13.90;99.90;;;;;;5051829;28;20448;-74
2021/07/01 00:13:03;;;;;;;27.80;18.80;;;13.90;99.90;;;;;;5052162;28;20459;-74
2021/07/01 00:15:32;;;;;;;27.00;18.13;;;13.90;99.90;;;;;;5051846;28;20441;-74
2021/07/01 00:17:59;;;;;;;22.70;17.33;;;13.90;99.90;;;;;;5047885;28;21045;-75
2021/07/01 00:20:25;;;;;;;30.53;19.40;;;13.90;99.90;;;;;;5051928;28;20554;-74
2021/07/01 00:22:52;;;;;;;27.80;19.97;;;14.00;99.90;;;;;;5047857;28;20471;-74
2021/07/01 00:25:18;;;;;;;28.23;18.80;;;14.00;99.90;;;;;;5051452;28;20490;-74
2021/07/01 00:27:45;;;;;;;31.70;19.50;;;14.00;99.90;;;;;;5045671;28;20507;-74
2021/07/01 00:30:12;;;;;;;24.33;19.33;;;14.00;99.90;;;;;;5049715;28;20857;-74
2021/07/01 00:32:38;;;;;;;24.80;18.80;;;14.00;99.90;;;;;;5052073;28;20441;-74
2021/07/01 00:35:06;;;;;;;30.57;20.40;;;14.00;99.90;;;;;;5051873;28;20456;-73
2021/07/01 00:37:34;;;;;;;28.00;18.97;;;14.00;99.90;;;;;;5050108;28;20475;-73
2021/07/01 00:40:00;;;;;;;30.37;18.70;;;14.00;99.90;;;;;;5030277;28;20452;-74
2021/07/01 00:42:27;;;;;;;25.23;18.40;;;14.00;99.90;;;;;;5050698;28;20473;-73
2021/07/01 00:44:53;;;;;;;25.17;18.10;;;14.00;99.90;;;;;;5058554;28;20194;-74
2021/07/01 00:47:19;;;;;;;23.33;17.57;;;14.00;99.90;;;;;;5048629;28;21054;-73
2021/07/01 00:49:45;;;;;;;23.87;17.30;;;13.90;99.90;;;;;;5055616;28;20179;-73
2021/07/01 00:52:11;;;;;;;21.93;15.30;;;13.90;99.90;;;;;;5048560;28;20458;-73
2021/07/01 00:54:38;;;;;;;20.07;15.43;;;14.00;99.90;;;;;;5047313;28;20190;-73
2021/07/01 00:57:08;;;;;;;20.23;14.97;;;13.80;99.90;;;;;;5049117;28;20452;-73
2021/07/01 00:59:35;;;;;;;21.80;15.53;;;13.80;99.90;;;;;;5051042;28;20531;-73
2021/07/01 01:02:00;;;;;;;20.03;15.20;;;13.80;99.90;;;;;;5046392;28;20466;-73
2021/07/01 01:04:26;;;;;;;20.83;15.67;;;13.80;99.90;;;;;;5054758;28;20442;-72
2021/07/01 01:06:53;;;;;;;22.03;16.27;;;13.90;99.90;;;;;;5046016;28;20260;-73
2021/07/01 01:09:19;;;;;;;21.43;15.57;;;13.80;99.90;;;;;;5051774;28;20441;-73
2021/07/01 01:11:45;;;;;;;24.23;17.07;;;13.80;99.90;;;;;;5049866;28;20464;-73
2021/07/01 01:14:13;;;;;;;29.80;18.90;;;13.80;99.90;;;;;;5056039;28;20602;-73
2021/07/01 01:16:57;;;;;;;25.63;18.63;;;13.80;99.90;;;;;;5055669;28;20845;-73
2021/07/01 01:19:23;;;;;;;31.87;17.83;;;13.80;99.90;;;;;;5053514;28;20441;-73
2021/07/01 01:21:50;;;;;;;26.00;18.50;;;13.70;99.90;;;;;;5052706;28;20203;-73
2021/07/01 01:24:16;;;;;;;30.33;19.17;;;13.80;99.90;;;;;;5052018;28;20965;-73
2021/07/01 01:26:42;;;;;;;25.47;17.40;;;13.80;99.90;;;;;;5050652;28;20444;-73
2021/07/01 01:29:08;;;;;;;22.47;16.13;;;13.80;99.90;;;;;;5046806;28;20436;-72
2021/07/01 01:31:37;;;;;;;30.50;18.40;;;13.80;99.90;;;;;;5047104;28;20442;-73
2021/07/01 01:34:04;;;;;;;26.50;17.50;;;13.80;99.90;;;;;;5054183;28;20448;-72
2021/07/01 01:36:29;;;;;;;24.10;17.20;;;13.80;99.90;;;;;;5052309;28;20507;-72
2021/07/01 01:38:56;;;;;;;23.43;16.77;;;13.80;99.90;;;;;;5050491;28;20529;-73
2021/07/01 01:41:27;;;;;;;26.23;17.27;;;13.80;99.90;;;;;;5048683;28;20461;-73
2021/07/01 01:43:54;;;;;;;23.80;18.40;;;13.80;99.90;;;;;;5055909;28;21317;-73
2021/07/01 01:46:21;;;;;;;25.87;16.43;;;13.80;99.90;;;;;;5051513;28;20464;-73
2021/07/01 01:48:53;;;;;;;25.60;18.37;;;13.80;99.90;;;;;;5049958;28;21006;-73
2021/07/01 01:51:21;;;;;;;25.30;16.77;;;13.80;99.90;;;;;;5045028;28;20472;-73
2021/07/01 01:53:49;;;;;;;27.13;16.73;;;13.80;99.90;;;;;;5048630;28;20467;-73
2021/07/01 01:56:19;;;;;;;27.57;17.40;;;13.70;99.90;;;;;;5048029;28;20440;-73
2021/07/01 01:58:48;;;;;;;26.30;18.47;;;13.70;99.90;;;;;;5050807;28;20445;-73
2021/07/01 02:01:33;;;;;;;27.23;18.23;;;13.70;99.90;;;;;;5045565;28;20478;-73
2021/07/01 02:04:04;;;;;;;24.20;17.30;;;13.70;99.90;;;;;;5054621;28;20954;-73
2021/07/01 02:06:42;;;;;;;21.30;15.90;;;13.70;99.90;;;;;;5049488;28;20476;-73
2021/07/01 02:09:08;;;;;;;27.00;15.80;;;13.70;99.90;;;;;;5051023;28;20597;-73
2021/07/01 02:11:46;;;;;;;25.83;17.87;;;13.70;99.90;;;;;;5044655;28;20193;-73
2021/07/01 02:14:20;;;;;;;30.27;18.53;;;13.80;99.90;;;;;;5051401;28;20472;-73
2021/07/01 02:17:11;;;;;;;22.13;15.20;;;13.80;99.90;;;;;;5047155;28;20459;-73
2021/07/01 02:19:37;;;;;;;27.53;17.10;;;13.70;99.90;;;;;;5051082;28;20444;-72
2021/07/01 02:22:04;;;;;;;24.00;17.07;;;13.70;99.90;;;;;;5050975;28;20491;-73
2021/07/01 02:24:33;;;;;;;24.13;18.20;;;13.70;99.90;;;;;;5054338;28;20438;-72
2021/07/01 02:26:58;;;;;;;26.90;17.87;;;13.70;99.90;;;;;;5049693;28;20437;-73
2021/07/01 02:29:25;;;;;;;21.73;15.53;;;13.60;99.90;;;;;;5047621;28;20191;-73
2021/07/01 02:32:17;;;;;;;23.17;14.93;;;13.70;99.90;;;;;;5043435;28;20483;-73
2021/07/01 02:34:42;;;;;;;23.37;15.77;;;13.70;99.90;;;;;;5054221;28;20441;-72
2021/07/01 02:37:44;;;;;;;23.33;16.33;;;13.70;99.90;;;;;;5031584;28;20186;-73
2021/07/01 02:40:20;;;;;;;20.60;14.93;;;13.70;99.90;;;;;;5050812;28;20443;-74
2021/07/01 02:42:54;;;;;;;23.00;15.43;;;13.60;99.90;;;;;;5049816;28;20571;-73
2021/07/01 02:45:20;;;;;;;19.90;14.33;;;13.60;99.90;;;;;;5047127;28;21024;-73
2021/07/01 02:47:52;;;;;;;20.23;15.20;;;13.70;99.90;;;;;;5052096;28;20437;-73
2021/07/01 02:50:18;;;;;;;20.70;14.47;;;13.70;99.90;;;;;;5048006;28;20456;-73
2021/07/01 02:52:45;;;;;;;18.87;13.13;;;13.60;99.90;;;;;;5040063;28;20190;-73
2021/07/01 02:55:11;;;;;;;19.30;14.67;;;13.60;99.90;;;;;;5046534;28;20441;-73
2021/07/01 02:57:38;;;;;;;20.00;14.47;;;13.60;99.90;;;;;;5047881;28;20210;-73
2021/07/01 03:00:09;;;;;;;20.60;15.67;;;13.60;99.90;;;;;;5044814;28;20444;-73
2021/07/01 03:02:51;;;;;;;23.47;16.30;;;13.50;99.90;;;;;;5045578;28;20535;-73
2021/07/01 03:05:53;;;;;;;25.70;15.27;;;13.60;99.90;;;;;;5058499;28;20459;-73
2021/07/01 03:08:19;;;;;;;19.20;14.03;;;13.60;99.90;;;;;;5057901;28;20729;-73
2021/07/01 03:10:48;;;;;;;23.70;15.37;;;13.60;99.90;;;;;;5051070;28;20822;-73
2021/07/01 03:13:15;;;;;;;17.93;13.17;;;13.60;99.90;;;;;;5054788;28;20446;-73
2021/07/01 03:15:42;;;;;;;21.70;14.00;;;13.50;99.90;;;;;;5049317;28;20435;-73
2021/07/01 03:18:10;;;;;;;21.17;14.00;;;13.50;99.90;;;;;;5053328;28;20438;-73
2021/07/01 03:20:55;;;;;;;21.33;14.13;;;13.60;99.90;;;;;;5049660;28;21057;-73
2021/07/01 03:23:36;;;;;;;17.30;13.97;;;13.50;99.90;;;;;;5064658;28;20463;-73
2021/07/01 03:26:03;;;;;;;21.33;13.70;;;13.60;99.90;;;;;;5054423;28;20445;-72
2021/07/01 03:28:29;;;;;;;19.57;14.67;;;13.50;99.90;;;;;;5052031;28;20504;-73
2021/07/01 03:30:55;;;;;;;18.20;14.37;;;13.50;99.90;;;;;;5053408;28;20182;-73
2021/07/01 03:33:21;;;;;;;15.20;12.20;;;13.50;99.90;;;;;;5058437;28;20452;-72
2021/07/01 03:35:47;;;;;;;21.00;14.00;;;13.50;99.90;;;;;;5050535;28;20547;-73
2021/07/01 03:38:48;;;;;;;19.00;14.13;;;13.40;99.90;;;;;;5058082;28;21042;-73
2021/07/01 03:41:19;;;;;;;17.43;13.70;;;13.50;99.90;;;;;;5049615;28;20970;-73
2021/07/01 03:43:48;;;;;;;18.57;12.83;;;13.50;99.90;;;;;;5044587;28;20442;-73
2021/07/01 03:46:16;;;;;;;17.70;12.77;;;13.50;99.90;;;;;;5052391;28;20183;-73
2021/07/01 03:48:44;;;;;;;16.00;12.00;;;13.50;99.90;;;;;;5056123;28;20437;-73
2021/07/01 03:51:35;;;;;;;17.00;12.30;;;13.50;99.90;;;;;;5046030;28;20613;-73
2021/07/01 03:54:34;;;;;;;13.97;11.13;;;13.50;99.90;;;;;;5053908;28;20479;-72
2021/07/01 03:57:05;;;;;;;11.60;9.10;;;13.50;99.90;;;;;;5055797;28;20445;-74
2021/07/01 03:59:43;;;;;;;13.87;9.77;;;13.40;99.90;;;;;;5048787;28;20966;-73
2021/07/01 04:02:27;;;;;;;15.10;10.67;;;13.40;99.90;;;;;;5045294;28;20476;-74
2021/07/01 04:04:55;;;;;;;11.93;9.20;;;13.40;99.90;;;;;;5049203;28;21002;-74
2021/07/01 04:07:20;;;;;;;13.60;10.93;;;13.40;99.90;;;;;;5047426;28;20518;-73
2021/07/01 04:09:46;;;;;;;12.20;8.47;;;13.40;99.90;;;;;;5045424;28;20191;-73
2021/07/01 04:12:32;;;;;;;10.73;8.90;;;13.40;99.90;;;;;;5055175;28;22106;-73
2021/07/01 04:15:17;;;;;;;13.40;9.93;;;13.50;99.90;;;;;;5047423;28;20822;-73
2021/07/01 04:18:17;;;;;;;13.73;8.53;;;13.50;99.90;;;;;;5053920;28;20451;-73
2021/07/01 04:21:02;;;;;;;18.87;8.80;;;13.50;99.90;;;;;;5053724;28;21129;-73
2021/07/01 04:23:47;;;;;;;9.53;7.87;;;13.70;99.90;;;;;;5053016;28;21072;-73
2021/07/01 04:26:45;;;;;;;9.90;8.37;;;13.70;99.90;;;;;;5046467;28;20448;-73
2021/07/01 04:29:21;;;;;;;12.07;8.90;;;13.80;99.90;;;;;;5053429;28;20440;-74
2021/07/01 04:31:49;;;;;;;12.67;9.53;;;13.80;99.90;;;;;;5033064;28;20810;-73
2021/07/01 04:34:15;;;;;;;11.30;10.10;;;13.70;99.90;;;;;;5048653;28;20444;-73
2021/07/01 04:36:41;;;;;;;14.23;9.43;;;13.70;99.90;;;;;;5054792;28;20691;-73
2021/07/01 04:39:11;;;;;;;11.80;9.93;;;13.60;99.90;;;;;;5058555;28;20494;-73
2021/07/01 04:41:53;;;;;;;13.10;10.20;;;13.50;99.90;;;;;;5047829;28;20466;-73
2021/07/01 04:44:19;;;;;;;16.23;12.10;;;13.50;99.90;;;;;;5052411;28;20798;-72
2021/07/01 04:46:46;;;;;;;15.83;11.37;;;13.50;99.90;;;;;;5054083;28;20181;-73
2021/07/01 04:49:12;;;;;;;14.10;11.77;;;13.50;99.90;;;;;;5049328;28;20440;-72
2021/07/01 04:51:56;;;;;;;17.20;12.60;;;13.40;99.90;;;;;;5056039;28;20467;-73
2021/07/01 04:54:41;;;;;;;26.53;14.17;;;13.40;99.90;;;;;;5047392;28;20528;-73
2021/07/01 04:57:25;;;;;;;15.17;11.97;;;13.30;99.90;;;;;;5042312;28;20971;-73
2021/07/01 04:59:51;;;;;;;16.47;11.10;;;13.30;99.90;;;;;;5049814;28;20456;-73
2021/07/01 05:02:39;;;;;;;17.60;10.87;;;13.30;99.90;;;;;;5026039;28;20313;-73
2021/07/01 05:05:17;;;;;;;23.20;12.27;;;13.30;99.90;;;;;;5045122;28;20464;-73
2021/07/01 05:07:47;;;;;;;17.63;11.80;;;13.20;99.90;;;;;;5054757;28;20471;-73
2021/07/01 05:10:16;;;;;;;19.73;12.20;;;13.20;99.90;;;;;;5051862;28;20648;-73
2021/07/01 05:12:50;;;;;;;21.10;13.80;;;13.20;99.90;;;;;;5055951;28;21225;-73
2021/07/01 05:15:16;;;;;;;28.57;16.67;;;13.30;99.90;;;;;;5048175;28;20449;-73
2021/07/01 05:17:42;;;;;;;21.67;14.10;;;13.20;99.90;;;;;;5048945;28;20997;-73
2021/07/01 05:20:08;;;;;;;25.00;14.90;;;13.20;99.90;;;;;;5042311;28;20207;-73
2021/07/01 05:22:47;;;;;;;27.70;15.27;;;13.20;99.90;;;;;;5049134;28;20209;-73
2021/07/01 05:25:35;;;;;;;26.40;16.23;;;13.10;99.90;;;;;;5048833;28;20536;-73
2021/07/01 05:28:26;;;;;;;30.40;15.80;;;13.10;99.90;;;;;;5052544;28;20518;-73
2021/07/01 05:31:30;;;;;;;30.53;16.67;;;13.10;99.90;;;;;;5045126;28;20472;-73
2021/07/01 05:34:16;;;;;;;33.90;16.97;;;13.10;99.90;;;;;;5053548;28;20438;-73
2021/07/01 05:36:42;;;;;;;26.10;16.30;;;13.10;99.90;;;;;;5057868;28;20467;-74
2021/07/01 05:39:12;;;;;;;26.97;15.93;;;13.10;99.90;;;;;;5054840;28;20450;-74
2021/07/01 05:41:41;;;;;;;22.13;14.17;;;13.20;99.90;;;;;;5049734;28;20467;-74
2021/07/01 05:44:07;;;;;;;21.40;14.43;;;13.20;99.90;;;;;;5041132;28;20452;-74
2021/07/01 05:47:05;;;;;;;22.40;15.97;;;13.10;99.90;;;;;;5046008;28;20505;-74
2021/07/01 05:49:31;;;;;;;25.50;16.00;;;13.10;99.90;;;;;;5050817;28;20465;-74
2021/07/01 05:52:00;;;;;;;22.43;15.57;;;13.20;99.90;;;;;;5051150;28;20203;-74
2021/07/01 05:54:29;;;;;;;20.80;15.37;;;13.20;99.90;;;;;;5056287;28;20869;-73
2021/07/01 05:56:55;;;;;;;20.90;14.73;;;13.20;99.90;;;;;;5056811;28;20535;-74
2021/07/01 05:59:21;;;;;;;18.50;15.10;;;13.10;99.90;;;;;;5049603;28;20477;-73
2021/07/01 06:01:47;;;;;;;21.90;15.43;;;13.10;99.90;;;;;;5052316;28;20206;-72
2021/07/01 06:04:13;;;;;;;21.63;14.13;;;13.10;99.90;;;;;;5048774;28;20200;-72
2021/07/01 06:06:58;;;;;;;27.87;15.03;;;13.10;99.90;;;;;;5056271;28;20443;-73
2021/07/01 06:09:29;;;;;;;21.00;14.47;;;13.10;99.90;;;;;;5051237;28;20437;-73
2021/07/01 06:11:59;;;;;;;23.73;15.70;;;13.20;99.90;;;;;;5049731;28;20444;-73
2021/07/01 06:14:27;;;;;;;28.70;15.80;;;13.20;99.90;;;;;;5048031;28;20443;-72
2021/07/01 06:16:54;;;;;;;21.47;13.90;;;13.20;99.90;;;;;;5050155;28;21018;-73
2021/07/01 06:19:21;;;;;;;28.37;15.50;;;13.20;99.90;;;;;;5060545;28;20479;-73
2021/07/01 06:21:51;;;;;;;21.40;15.43;;;13.30;99.90;;;;;;5054349;28;20472;-73
2021/07/01 06:24:18;;;;;;;25.83;16.00;;;13.30;99.90;;;;;;5054542;28;20458;-74
2021/07/01 06:26:46;;;;;;;27.50;17.17;;;13.20;99.90;;;;;;5054029;28;20528;-73
2021/07/01 06:29:13;;;;;;;28.23;17.50;;;13.30;99.90;;;;;;5050470;28;20524;-73
2021/07/01 06:31:39;;;;;;;25.30;16.27;;;13.20;99.90;;;;;;5052625;28;20444;-73
2021/07/01 06:34:07;;;;;;;27.80;16.90;;;13.20;99.90;;;;;;5054505;28;20477;-73
2021/07/01 06:36:35;;;;;;;20.50;14.40;;;13.20;99.90;;;;;;5049962;28;20467;-74
2021/07/01 06:39:21;;;;;;;24.70;16.53;;;13.10;99.90;;;;;;5043316;28;20451;-74
2021/07/01 06:42:07;;;;;;;24.20;15.30;;;13.20;99.90;;;;;;5046050;28;20452;-74
2021/07/01 06:44:51;;;;;;;21.60;15.50;;;13.20;99.90;;;;;;5056639;28;20440;-74
2021/07/01 06:47:37;;;;;;;32.70;17.00;;;13.20;99.90;;;;;;5048695;28;20447;-74
2021/07/01 06:50:30;;;;;;;22.93;15.77;;;13.20;99.90;;;;;;5033060;28;20478;-74
2021/07/01 06:53:28;;;;;;;24.20;15.70;;;13.20;99.90;;;;;;5055139;28;21613;-74
2021/07/01 06:56:12;;;;;;;26.17;18.00;;;13.10;99.90;;;;;;5049141;28;20424;-74
2021/07/01 06:58:43;;;;;;;28.00;15.43;;;13.10;99.90;;;;;;5046888;28;20457;-74
2021/07/01 07:01:10;;;;;;;26.93;16.40;;;13.20;99.90;;;;;;5039478;28;20512;-75
2021/07/01 07:03:36;;;;;;;27.97;15.30;;;13.20;99.90;;;;;;5032641;28;20519;-74
2021/07/01 07:06:03;;;;;;;22.60;15.83;;;13.20;99.90;;;;;;5053120;28;20507;-75
2021/07/01 07:08:30;;;;;;;24.67;15.03;;;13.30;99.90;;;;;;5053061;28;20449;-74
2021/07/01 07:10:56;;;;;;;19.60;14.77;;;13.40;99.90;;;;;;5056356;28;20505;-73
2021/07/01 07:13:25;;;;;;;21.03;13.80;;;13.50;99.90;;;;;;5051041;28;20471;-74
2021/07/01 07:15:54;;;;;;;18.10;11.57;;;13.40;99.90;;;;;;5044764;28;20488;-74
2021/07/01 07:18:24;;;;;;;20.90;10.83;;;13.40;99.90;;;;;;5058542;28;20435;-74
2021/07/01 07:20:55;;;;;;;15.53;11.87;;;13.30;99.90;;;;;;5054748;28;21188;-74
2021/07/01 07:23:32;;;;;;;14.23;11.77;;;13.40;99.90;;;;;;5045644;28;20953;-73
2021/07/01 07:26:03;;;;;;;22.30;11.60;;;13.50;99.90;;;;;;5048940;28;20448;-74
2021/07/01 07:28:31;;;;;;;17.93;11.20;;;13.50;99.90;;;;;;5054127;28;20448;-73
2021/07/01 07:30:57;;;;;;;19.90;11.57;;;13.50;99.90;;;;;;5045861;28;20461;-74
2021/07/01 07:33:27;;;;;;;21.53;12.70;;;13.50;99.90;;;;;;5055305;28;20445;-74
2021/07/01 07:35:54;;;;;;;25.03;12.27;;;13.50;99.90;;;;;;5059137;28;20445;-74
2021/07/01 07:38:24;;;;;;;21.47;13.40;;;13.50;99.90;;;;;;5056049;28;20460;-74
2021/07/01 07:40:51;;;;;;;22.97;13.50;;;13.50;99.90;;;;;;5055495;28;20505;-74
2021/07/01 07:43:19;;;;;;;26.27;13.20;;;13.40;99.90;;;;;;5055409;28;20584;-74
2021/07/01 07:45:47;;;;;;;21.60;12.50;;;13.40;99.90;;;;;;5046487;28;20436;-73
2021/07/01 07:48:12;;;;;;;19.73;12.53;;;13.40;99.90;;;;;;5049783;28;20436;-74
2021/07/01 07:50:39;;;;;;;14.80;10.83;;;13.40;99.90;;;;;;5057801;28;20453;-74
2021/07/01 07:53:09;;;;;;;16.97;12.33;;;13.40;99.90;;;;;;5053677;28;20290;-75
2021/07/01 07:55:36;;;;;;;18.17;13.10;;;13.30;99.90;;;;;;5050536;28;20452;-74
2021/07/01 07:58:06;;;;;;;23.97;12.87;;;13.40;99.90;;;;;;5057909;28;20447;-74
2021/07/01 08:00:33;;;;;;;28.17;12.83;;;13.40;99.90;;;;;;5053114;28;25537;-74
2021/07/01 08:03:06;;;;;;;21.33;12.80;;;13.30;99.90;;;;;;5048783;28;20477;-74
2021/07/01 08:05:33;;;;;;;24.37;13.70;;;13.30;99.90;;;;;;5049457;28;20970;-74
2021/07/01 08:07:59;;;;;;;22.10;13.20;;;13.30;99.90;;;;;;5049274;28;20636;-74
2021/07/01 08:10:32;;;;;;;17.07;14.30;;;13.30;99.90;;;;;;5054130;28;20446;-74
2021/07/01 08:13:05;;;;;;;22.27;13.63;;;13.30;99.90;;;;;;5050633;28;20453;-73
2021/07/01 08:15:37;;;;;;;23.30;14.43;;;13.30;99.90;;;;;;5053557;28;20441;-74
2021/07/01 08:18:04;;;;;;;24.00;14.80;;;13.30;99.90;;;;;;5039525;28;20488;-74
2021/07/01 08:20:30;;;;;;;24.97;15.67;;;13.30;99.90;;;;;;5051248;28;20445;-73
2021/07/01 08:22:57;;;;;;;24.00;16.67;;;13.20;99.90;;;;;;5053851;28;20537;-74
2021/07/01 08:25:25;;;;;;;28.00;16.80;;;13.20;99.90;;;;;;5049428;28;20449;-74
2021/07/01 08:27:52;;;;;;;28.07;15.90;;;13.20;99.90;;;;;;5054617;28;21200;-74
2021/07/01 08:30:24;;;;;;;25.57;15.30;;;13.20;99.90;;;;;;5050635;28;20510;-74
2021/07/01 08:32:58;;;;;;;24.30;15.70;;;13.30;99.90;;;;;;5051697;28;20433;-74
2021/07/01 08:35:25;;;;;;;19.77;14.27;;;13.30;99.90;;;;;;5048172;28;20999;-74
2021/07/01 08:37:55;;;;;;;19.40;14.63;;;13.40;99.90;;;;;;5052950;28;20488;-73
2021/07/01 08:40:29;;;;;;;22.03;15.30;;;13.30;99.90;;;;;;5055345;28;20439;-74
2021/07/01 08:42:58;;;;;;;23.87;13.70;;;13.30;99.90;;;;;;5049974;28;20879;-73
2021/07/01 08:45:39;;;;;;;21.43;14.10;;;13.30;99.90;;;;;;5053447;28;20440;-73
2021/07/01 08:48:17;;;;;;;27.40;16.67;;;13.30;99.90;;;;;;5054816;28;20438;-74
2021/07/01 08:50:52;;;;;;;26.20;14.50;;;13.30;99.90;;;;;;5058897;28;20577;-74
2021/07/01 08:53:36;;;;;;;23.20;14.23;;;13.30;99.90;;;;;;5051676;28;20469;-75
2021/07/01 08:56:03;;;;;;;23.37;14.37;;;13.40;99.90;;;;;;5050018;28;20556;-73
2021/07/01 08:58:32;;;;;;;22.17;15.50;;;13.40;99.90;;;;;;5052066;28;20483;-75
2021/07/01 09:01:01;;;;;;;23.00;14.30;;;13.40;99.90;;;;;;5052337;28;20453;-73
2021/07/01 09:03:29;;;;;;;15.53;11.57;;;13.20;99.90;;;;;;5057230;28;20475;-74
2021/07/01 09:06:01;;;;;;;18.77;11.83;;;13.30;99.90;;;;;;5059264;28;20531;-74
2021/07/01 09:08:30;;;;;;;19.17;12.57;;;13.30;99.90;;;;;;5054646;28;20488;-74
2021/07/01 09:11:01;;;;;;;20.10;12.20;;;13.30;99.90;;;;;;5061073;28;20442;-73
2021/07/01 09:13:30;;;;;;;19.37;12.97;;;13.20;99.90;;;;;;5051660;28;20887;-73
2021/07/01 09:15:58;;;;;;;17.90;12.83;;;13.20;99.90;;;;;;5056604;28;20457;-73
2021/07/01 09:18:26;;;;;;;27.53;15.03;;;13.30;99.90;;;;;;5054378;28;20534;-73
2021/07/01 09:20:54;;;;;;;15.90;11.37;;;13.30;99.90;;;;;;5050916;28;20441;-73
2021/07/01 09:23:22;;;;;;;21.10;13.77;;;13.30;99.90;;;;;;5051232;28;20496;-72
2021/07/01 09:25:51;;;;;;;23.43;13.00;;;13.20;99.90;;;;;;5046417;28;20529;-73
2021/07/01 09:28:17;;;;;;;22.07;12.50;;;13.20;99.90;;;;;;5054061;28;20433;-74
2021/07/01 09:30:43;;;;;;;24.57;13.83;;;13.20;99.90;;;;;;5050974;28;20442;-75
2021/07/01 09:33:09;;;;;;;22.90;13.13;;;13.20;99.90;;;;;;5051820;28;20541;-73
2021/07/01 09:35:36;;;;;;;26.67;15.40;;;13.20;99.90;;;;;;5053794;28;20189;-73
2021/07/01 09:38:05;;;;;;;20.77;14.30;;;13.20;99.90;;;;;;5048328;28;20199;-73
2021/07/01 09:40:36;;;;;;;21.37;14.20;;;13.30;99.90;;;;;;5058039;28;21146;-73
2021/07/01 09:43:04;;;;;;;21.60;16.37;;;13.40;99.90;;;;;;5057509;28;20449;-73
2021/07/01 09:45:32;;;;;;;28.67;16.30;;;13.30;99.90;;;;;;5059804;28;20475;-73
2021/07/01 09:48:13;;;;;;;25.70;16.73;;;13.30;99.90;;;;;;5050989;28;20466;-73
2021/07/01 09:50:45;;;;;;;25.87;16.90;;;13.20;99.90;;;;;;5044807;28;20523;-74
2021/07/01 09:53:27;;;;;;;26.73;17.10;;;13.30;99.90;;;;;;5042183;28;21325;-73
2021/07/01 09:55:53;;;;;;;20.67;15.30;;;13.30;99.90;;;;;;5055085;28;20461;-73
2021/07/01 09:58:21;;;;;;;21.90;16.27;;;13.20;99.90;;;;;;5052123;28;20479;-73
2021/07/01 10:00:52;;;;;;;26.90;18.03;;;13.10;99.90;;;;;;5053707;28;20449;-74
2021/07/01 10:03:18;;;;;;;30.20;18.53;;;13.30;99.90;;;;;;5055506;28;20469;-73
2021/07/01 10:05:44;;;;;;;25.23;17.57;;;13.20;99.90;;;;;;5053006;28;20468;-73
2021/07/01 10:08:10;;;;;;;26.43;18.57;;;13.20;99.90;;;;;;5048183;28;20810;-73
2021/07/01 10:10:46;;;;;;;30.40;19.30;;;13.40;99.90;;;;;;5041696;28;20950;-73
2021/07/01 10:13:12;;;;;;;24.80;18.37;;;13.50;99.90;;;;;;5046140;28;20286;-73
2021/07/01 10:15:40;;;;;;;30.10;20.20;;;13.60;99.90;;;;;;5051009;28;20973;-73
2021/07/01 10:18:11;;;;;;;32.20;19.47;;;13.80;99.90;;;;;;5047001;28;20444;-74
2021/07/01 10:20:40;;;;;;;25.03;18.03;;;13.70;99.90;;;;;;5047307;28;20455;-74
2021/07/01 10:23:17;;;;;;;27.67;18.60;;;13.60;99.90;;;;;;5050024;28;20465;-73
2021/07/01 10:25:44;;;;;;;24.17;18.13;;;13.60;99.90;;;;;;5041220;28;20448;-73
2021/07/01 10:28:14;;;;;;;25.50;17.23;;;13.50;99.90;;;;;;5044848;28;20524;-73
2021/07/01 10:30:42;;;;;;;23.27;15.83;;;13.60;99.90;;;;;;5041703;28;20482;-73
2021/07/01 10:33:40;;;;;;;25.23;17.40;;;13.60;99.90;;;;;;5047673;28;20484;-73
2021/07/01 10:36:14;;;;;;;26.50;17.40;;;13.60;99.90;;;;;;5054937;28;20457;-72
2021/07/01 10:38:45;;;;;;;22.87;18.53;;;13.50;99.90;;;;;;5048110;28;20478;-73
2021/07/01 10:41:12;;;;;;;21.30;16.27;;;13.60;99.90;;;;;;5046062;28;20445;-73
2021/07/01 10:43:45;;;;;;;24.17;18.10;;;13.40;99.90;;;;;;5050941;28;20504;-73
2021/07/01 10:46:11;;;;;;;22.80;15.73;;;13.50;99.90;;;;;;5051083;28;21115;-74
2021/07/01 10:48:38;;;;;;;20.33;14.17;;;13.60;99.90;;;;;;5052233;28;20491;-73
2021/07/01 10:51:12;;;;;;;24.70;16.23;;;13.50;99.90;;;;;;5058542;28;20448;-73
2021/07/01 10:53:40;;;;;;;24.87;16.73;;;13.50;99.90;;;;;;5051664;28;20478;-73
2021/07/01 10:56:09;;;;;;;23.67;17.37;;;13.50;99.90;;;;;;5052187;28;20458;-73
2021/07/01 10:58:35;;;;;;;22.33;17.07;;;13.50;99.90;;;;;;5050506;28;20450;-73
2021/07/01 11:01:03;;;;;;;20.40;15.50;;;13.40;99.90;;;;;;5046142;28;20448;-73
2021/07/01 11:03:32;;;;;;;24.53;18.47;;;13.40;99.90;;;;;;5059009;28;20556;-74
2021/07/01 11:05:59;;;;;;;20.87;17.60;;;13.40;99.90;;;;;;5050901;28;20538;-73
2021/07/01 11:08:36;;;;;;;24.03;17.60;;;13.30;99.90;;;;;;5056961;28;20483;-74
2021/07/01 11:11:04;;;;;;;26.60;19.97;;;13.40;99.90;;;;;;5056216;28;20445;-73
2021/07/01 11:13:31;;;;;;;28.47;18.97;;;13.50;99.90;;;;;;5044468;28;20630;-73
2021/07/01 11:16:09;;;;;;;23.33;16.93;;;13.50;99.90;;;;;;5049975;28;20682;-74
2021/07/01 11:18:37;;;;;;;28.43;19.07;;;13.50;99.90;;;;;;5051956;28;20452;-73
2021/07/01 11:21:12;;;;;;;24.23;16.73;;;13.60;99.90;;;;;;5048315;28;20458;-74
2021/07/01 11:23:40;;;;;;;18.27;15.83;;;13.60;99.90;;;;;;5058608;28;20475;-74
2021/07/01 11:26:32;;;;;;;23.37;16.97;;;13.70;99.90;;;;;;5045311;28;20433;-74
2021/07/01 11:29:00;;;;;;;20.57;16.13;;;13.70;99.90;;;;;;5055910;28;20453;-74
2021/07/01 11:31:45;;;;;;;18.63;15.13;;;13.60;99.90;;;;;;5058409;28;20445;-73
2021/07/01 11:34:18;;;;;;;18.40;14.40;;;13.70;99.90;;;;;;5062760;28;20876;-73
2021/07/01 11:36:54;;;;;;;23.60;15.23;;;13.60;99.90;;;;;;5057848;28;20456;-73
2021/07/01 11:39:25;;;;;;;22.47;16.20;;;13.70;99.90;;;;;;5054805;28;20439;-74
2021/07/01 11:41:52;;;;;;;20.70;14.40;;;13.70;99.90;;;;;;5052061;28;20468;-74
2021/07/01 11:44:19;;;;;;;21.60;13.00;;;13.70;99.90;;;;;;5056317;28;20531;-74
2021/07/01 11:46:45;;;;;;;16.73;13.07;;;13.70;99.90;;;;;;5052666;28;20460;-74
2021/07/01 11:49:11;;;;;;;20.37;15.43;;;13.70;99.90;;;;;;5053403;28;20467;-73
2021/07/01 11:51:38;;;;;;;19.93;13.50;;;13.70;99.90;;;;;;5065728;28;21298;-74
2021/07/01 11:54:05;;;;;;;21.10;13.77;;;13.60;99.90;;;;;;5057751;28;20497;-74
2021/07/01 11:56:53;;;;;;;23.70;15.00;;;13.60;99.90;;;;;;5057360;28;20441;-73
2021/07/01 11:59:19;;;;;;;18.30;13.90;;;13.60;99.90;;;;;;5058621;28;20448;-73
2021/07/01 12:01:45;;;;;;;19.40;13.80;;;13.60;99.90;;;;;;5059795;28;20511;-74
2021/07/01 12:04:15;;;;;;;20.60;15.57;;;13.70;99.90;;;;;;5057050;28;20482;-73
2021/07/01 12:06:55;;;;;;;23.80;16.40;;;13.60;99.90;;;;;;5054807;28;20198;-73
2021/07/01 12:09:21;;;;;;;21.40;15.00;;;13.60;99.90;;;;;;5045664;28;20448;-73
2021/07/01 12:12:05;;;;;;;22.07;15.60;;;13.70;99.90;;;;;;5054139;28;20467;-74
2021/07/01 12:14:31;;;;;;;22.80;16.50;;;13.70;99.90;;;;;;5049983;28;20646;-73
2021/07/01 12:16:57;;;;;;;23.03;15.23;;;13.80;99.90;;;;;;5058518;28;20457;-73
2021/07/01 12:19:45;;;;;;;23.17;16.40;;;13.80;99.90;;;;;;5055668;28;20437;-73
2021/07/01 12:22:46;;;;;;;18.03;15.17;;;13.80;99.90;;;;;;5054630;28;20599;-73
2021/07/01 12:25:21;;;;;;;19.80;15.30;;;13.80;99.90;;;;;;5052760;28;20447;-73
2021/07/01 12:28:05;;;;;;;18.97;13.97;;;13.80;99.90;;;;;;5058559;28;20443;-73
2021/07/01 12:30:57;;;;;;;19.80;15.27;;;13.80;99.90;;;;;;5056116;28;20445;-73
2021/07/01 12:33:45;;;;;;;18.90;13.70;;;13.80;99.90;;;;;;5059615;28;20966;-73
2021/07/01 12:36:24;;;;;;;18.80;13.50;;;13.80;99.90;;;;;;5056501;28;20472;-74
2021/07/01 12:39:06;;;;;;;20.80;15.37;;;13.90;99.90;;;;;;5053051;28;20463;-74
2021/07/01 12:41:36;;;;;;;22.60;15.07;;;14.00;99.90;;;;;;5059631;28;21031;-74
2021/07/01 12:44:06;;;;;;;16.50;13.43;;;13.90;99.90;;;;;;5054589;28;20446;-73
2021/07/01 12:46:41;;;;;;;19.33;13.83;;;13.90;99.90;;;;;;5056590;28;20434;-73
2021/07/01 12:49:17;;;;;;;14.33;12.80;;;13.90;99.90;;;;;;5056908;28;20469;-73
2021/07/01 12:52:15;;;;;;;10.93;9.80;;;13.90;99.90;;;;;;5050044;28;20428;-73